sensor_id;sensor_type;location;lat;lon;timestamp;pressure;altitude;pressure_sealevel;temperature;humidity
42725;BME280;28369;44.046;23.014;2022-10-15T00:00:30;101504.16;;;17.08;64.45
42725;BME280;28369;44.046;23.014;2022-10-15T00:03:07;101560.66;;;17.28;64.98
42725;BME280;28369;44.046;23.014;2022-10-15T00:09:08;101569.31;;;17.48;64.46
42725;BME280;28369;44.046;23.014;2022-10-15T00:15:14;101546.03;;;17.14;65.05
42725;BME280;28369;44.046;23.014;2022-10-15T00:21:12;101588.06;;;17.47;64.88
42725;BME280;28369;44.046;23.014;2022-10-15T00:27:02;101620.59;;;17.76;64.05
42725;BME280;28369;44.046;23.014;2022-10-15T00:33:03;101535.97;;;17.18;64.38
42725;BME280;28369;44.046;23.014;2022-10-15T00:39:06;101607.91;;;17.52;64.33
42725;BME280;28369;44.046;23.014;2022-10-15T00:44:59;101554.13;;;17.22;64.41
42725;BME280;28369;44.046;23.014;2022-10-15T00:50:47;101513.28;;;17.23;63.56
42725;BME280;28369;44.046;23.014;2022-10-15T00:56:45;101564.97;;;17.65;63.31
42725;BME280;28369;44.046;23.014;2022-10-15T01:02:34;101609.06;;;17.68;63.50
42725;BME280;28369;44.046;23.014;2022-10-15T01:04:59;101562.69;;;17.34;63.96
42725;BME280;28369;44.046;23.014;2022-10-15T01:07:25;101585.88;;;17.60;63.54
42725;BME280;28369;44.046;23.014;2022-10-15T01:09:50;101269.56;;;15.71;63.13
42725;BME280;28369;44.046;23.014;2022-10-15T01:16:06;101597.72;;;17.84;63.26
42725;BME280;28369;44.046;23.014;2022-10-15T01:41:48;101615.19;;;17.68;63.17
42725;BME280;28369;44.046;23.014;2022-10-15T01:44:19;101441.13;;;16.54;63.44
42725;BME280;28369;44.046;23.014;2022-10-15T01:50:19;101619.66;;;17.86;62.59
42725;BME280;28369;44.046;23.014;2022-10-15T01:56:22;101566.19;;;17.53;61.97
42725;BME280;28369;44.046;23.014;2022-10-15T01:58:49;101587.69;;;17.59;62.69
42725;BME280;28369;44.046;23.014;2022-10-15T02:01:17;101515.00;;;17.15;62.43
42725;BME280;28369;44.046;23.014;2022-10-15T02:03:47;101504.97;;;17.08;62.09
42725;BME280;28369;44.046;23.014;2022-10-15T02:09:47;101623.31;;;17.85;61.99
42725;BME280;28369;44.046;23.014;2022-10-15T02:16:14;101639.38;;;17.75;62.31
42725;BME280;28369;44.046;23.014;2022-10-15T02:22:08;101608.28;;;17.39;62.22
42725;BME280;28369;44.046;23.014;2022-10-15T02:28:26;101582.38;;;17.41;62.15
42725;BME280;28369;44.046;23.014;2022-10-15T02:34:17;101633.13;;;17.66;61.80
42725;BME280;28369;44.046;23.014;2022-10-15T02:36:44;101588.91;;;17.29;61.79
42725;BME280;28369;44.046;23.014;2022-10-15T02:39:13;101535.25;;;16.98;61.77
42725;BME280;28369;44.046;23.014;2022-10-15T02:41:42;101346.41;;;15.71;61.67
42725;BME280;28369;44.046;23.014;2022-10-15T02:44:08;101495.16;;;16.63;61.63
42725;BME280;28369;44.046;23.014;2022-10-15T02:46:33;101645.72;;;17.64;61.61
42725;BME280;28369;44.046;23.014;2022-10-15T02:48:59;101583.94;;;17.34;61.48
42725;BME280;28369;44.046;23.014;2022-10-15T02:51:24;101642.91;;;17.48;61.84
42725;BME280;28369;44.046;23.014;2022-10-15T02:53:49;101376.22;;;15.93;61.55
42725;BME280;28369;44.046;23.014;2022-10-15T02:56:15;101595.66;;;17.23;61.48
42725;BME280;28369;44.046;23.014;2022-10-15T02:58:40;101553.69;;;16.99;61.32
42725;BME280;28369;44.046;23.014;2022-10-15T03:01:06;101639.63;;;17.36;62.27
42725;BME280;28369;44.046;23.014;2022-10-15T03:03:31;101412.00;;;15.89;61.40
42725;BME280;28369;44.046;23.014;2022-10-15T03:05:57;101413.94;;;15.87;61.82
42725;BME280;28369;44.046;23.014;2022-10-15T03:08:32;101615.44;;;17.11;62.08
42725;BME280;28369;44.046;23.014;2022-10-15T03:14:20;101597.38;;;16.77;62.81
42725;BME280;28369;44.046;23.014;2022-10-15T03:20:07;101434.19;;;15.68;62.72
42725;BME280;28369;44.046;23.014;2022-10-15T03:25:56;101634.50;;;16.87;63.34
42725;BME280;28369;44.046;23.014;2022-10-15T03:28:22;101536.81;;;16.25;63.51
42725;BME280;28369;44.046;23.014;2022-10-15T03:30:48;101313.00;;;14.74;62.77
42725;BME280;28369;44.046;23.014;2022-10-15T03:33:13;101374.16;;;15.20;63.33
42725;BME280;28369;44.046;23.014;2022-10-15T03:35:39;101663.25;;;17.11;63.17
42725;BME280;28369;44.046;23.014;2022-10-15T03:38:13;101404.09;;;15.50;62.67
42725;BME280;28369;44.046;23.014;2022-10-15T03:47:15;101535.06;;;15.86;64.08
42725;BME280;28369;44.046;23.014;2022-10-15T03:53:03;101563.81;;;16.01;63.55
42725;BME280;28369;44.046;23.014;2022-10-15T03:55:29;101548.03;;;15.89;63.89
42725;BME280;28369;44.046;23.014;2022-10-15T03:57:55;101669.81;;;16.69;64.20
42725;BME280;28369;44.046;23.014;2022-10-15T04:00:20;101545.91;;;16.03;63.60
42725;BME280;28369;44.046;23.014;2022-10-15T04:02:46;101428.94;;;15.10;63.52
42725;BME280;28369;44.046;23.014;2022-10-15T04:05:11;101383.38;;;14.96;63.55
42725;BME280;28369;44.046;23.014;2022-10-15T04:07:37;101384.63;;;14.73;64.12
42725;BME280;28369;44.046;23.014;2022-10-15T04:10:02;101530.56;;;15.67;63.89
42725;BME280;28369;44.046;23.014;2022-10-15T04:12:28;101462.13;;;15.24;63.91
42725;BME280;28369;44.046;23.014;2022-10-15T04:14:53;101573.69;;;15.69;64.51
42725;BME280;28369;44.046;23.014;2022-10-15T04:17:19;101565.31;;;15.74;64.46
42725;BME280;28369;44.046;23.014;2022-10-15T04:19:44;101672.41;;;16.22;64.71
42725;BME280;28369;44.046;23.014;2022-10-15T04:22:09;101436.59;;;14.74;65.39
42725;BME280;28369;44.046;23.014;2022-10-15T04:24:35;101653.25;;;16.09;65.06
42725;BME280;28369;44.046;23.014;2022-10-15T04:27:01;101379.97;;;14.55;64.40
42725;BME280;28369;44.046;23.014;2022-10-15T04:29:41;101561.28;;;15.60;64.29
42725;BME280;28369;44.046;23.014;2022-10-15T04:35:34;101659.28;;;16.01;65.03
42725;BME280;28369;44.046;23.014;2022-10-15T04:49:00;101661.00;;;15.61;65.80
42725;BME280;28369;44.046;23.014;2022-10-15T04:51:26;101692.03;;;15.80;65.86
42725;BME280;28369;44.046;23.014;2022-10-15T04:53:52;101477.16;;;14.53;65.89
42725;BME280;28369;44.046;23.014;2022-10-15T04:56:19;101595.22;;;15.16;65.75
42725;BME280;28369;44.046;23.014;2022-10-15T04:58:46;101476.28;;;14.43;65.69
42725;BME280;28369;44.046;23.014;2022-10-15T05:01:14;101442.84;;;14.32;65.52
42725;BME280;28369;44.046;23.014;2022-10-15T05:03:42;101528.94;;;14.77;65.67
42725;BME280;28369;44.046;23.014;2022-10-15T05:06:11;101659.31;;;15.41;65.92
42725;BME280;28369;44.046;23.014;2022-10-15T05:08:37;101580.59;;;15.02;65.82
42725;BME280;28369;44.046;23.014;2022-10-15T05:11:03;101694.41;;;15.73;65.69
42725;BME280;28369;44.046;23.014;2022-10-15T05:13:30;101450.91;;;13.99;66.02
42725;BME280;28369;44.046;23.014;2022-10-15T05:15:56;101467.63;;;14.31;65.21
42725;BME280;28369;44.046;23.014;2022-10-15T05:18:22;101445.00;;;14.17;65.28
42725;BME280;28369;44.046;23.014;2022-10-15T05:20:47;101448.16;;;13.80;66.23
42725;BME280;28369;44.046;23.014;2022-10-15T05:23:13;101472.19;;;14.29;65.54
42725;BME280;28369;44.046;23.014;2022-10-15T05:25:38;101610.03;;;15.18;65.44
42725;BME280;28369;44.046;23.014;2022-10-15T05:28:04;101709.56;;;15.52;65.94
42725;BME280;28369;44.046;23.014;2022-10-15T05:30:29;101629.53;;;15.08;65.34
42725;BME280;28369;44.046;23.014;2022-10-15T05:32:55;101485.16;;;14.32;64.80
42725;BME280;28369;44.046;23.014;2022-10-15T05:35:21;101700.94;;;15.69;64.11
42725;BME280;28369;44.046;23.014;2022-10-15T05:37:48;101434.69;;;14.14;63.96
42725;BME280;28369;44.046;23.014;2022-10-15T05:40:48;101730.47;;;16.05;63.69
42725;BME280;28369;44.046;23.014;2022-10-15T05:46:35;101739.81;;;16.00;63.83
42725;BME280;28369;44.046;23.014;2022-10-15T05:49:01;101730.44;;;15.96;63.61
42725;BME280;28369;44.046;23.014;2022-10-15T05:51:26;101506.34;;;14.32;63.61
42725;BME280;28369;44.046;23.014;2022-10-15T05:53:54;101466.06;;;13.97;64.68
42725;BME280;28369;44.046;23.014;2022-10-15T05:56:19;101468.38;;;14.12;63.88
42725;BME280;28369;44.046;23.014;2022-10-15T05:58:45;101686.53;;;15.52;63.50
42725;BME280;28369;44.046;23.014;2022-10-15T06:01:11;101750.00;;;15.95;63.02
42725;BME280;28369;44.046;23.014;2022-10-15T06:03:39;101756.69;;;15.99;62.86
42725;BME280;28369;44.046;23.014;2022-10-15T06:06:12;101656.88;;;15.18;62.97
42725;BME280;28369;44.046;23.014;2022-10-15T06:11:59;101720.53;;;15.47;62.42
42725;BME280;28369;44.046;23.014;2022-10-15T06:17:51;101758.75;;;15.85;62.02
42725;BME280;28369;44.046;23.014;2022-10-15T06:20:17;101527.50;;;14.42;61.26
42725;BME280;28369;44.046;23.014;2022-10-15T06:22:42;101687.47;;;15.42;61.43
42725;BME280;28369;44.046;23.014;2022-10-15T06:25:08;101541.72;;;14.62;60.79
42725;BME280;28369;44.046;23.014;2022-10-15T06:30:58;101698.19;;;16.00;59.76
42725;BME280;28369;44.046;23.014;2022-10-15T06:36:53;101759.19;;;16.98;58.21
42725;BME280;28369;44.046;23.014;2022-10-15T06:39:19;101776.25;;;16.86;58.32
42725;BME280;28369;44.046;23.014;2022-10-15T06:41:44;101706.09;;;16.88;57.02
42725;BME280;28369;44.046;23.014;2022-10-15T06:44:30;101723.44;;;17.30;55.48
42725;BME280;28369;44.046;23.014;2022-10-15T07:04:28;101819.13;;;18.23;51.54
42725;BME280;28369;44.046;23.014;2022-10-15T07:10:15;101660.19;;;17.06;51.46
42725;BME280;28369;44.046;23.014;2022-10-15T07:16:27;101810.91;;;18.17;51.16
42725;BME280;28369;44.046;23.014;2022-10-15T07:22:15;101723.50;;;18.30;50.21
42725;BME280;28369;44.046;23.014;2022-10-15T07:28:05;101577.03;;;17.23;49.79
42725;BME280;28369;44.046;23.014;2022-10-15T07:34:22;101821.63;;;18.61;50.30
42725;BME280;28369;44.046;23.014;2022-10-15T07:40:32;101820.09;;;18.58;50.23
42725;BME280;28369;44.046;23.014;2022-10-15T07:46:21;101758.38;;;18.81;49.03
42725;BME280;28369;44.046;23.014;2022-10-15T07:48:46;101697.03;;;18.46;48.46
42725;BME280;28369;44.046;23.014;2022-10-15T07:51:12;101759.50;;;18.78;48.31
42725;BME280;28369;44.046;23.014;2022-10-15T07:53:37;101605.00;;;17.82;48.43
42725;BME280;28369;44.046;23.014;2022-10-15T07:56:23;101797.75;;;19.13;48.22
42725;BME280;28369;44.046;23.014;2022-10-15T07:58:49;101685.66;;;18.18;49.42
42725;BME280;28369;44.046;23.014;2022-10-15T08:01:19;101769.13;;;18.53;49.44
42725;BME280;28369;44.046;23.014;2022-10-15T08:03:51;101728.34;;;18.53;48.87
42725;BME280;28369;44.046;23.014;2022-10-15T08:09:44;101805.94;;;18.94;48.53
42725;BME280;28369;44.046;23.014;2022-10-15T08:15:49;101797.84;;;19.04;47.76
42725;BME280;28369;44.046;23.014;2022-10-15T08:18:15;101771.38;;;19.10;47.80
42725;BME280;28369;44.046;23.014;2022-10-15T08:20:40;101754.91;;;19.07;47.98
42725;BME280;28369;44.046;23.014;2022-10-15T08:23:13;101630.34;;;18.30;47.74
42725;BME280;28369;44.046;23.014;2022-10-15T08:25:39;101553.31;;;17.84;47.75
42725;BME280;28369;44.046;23.014;2022-10-15T08:28:06;101593.00;;;18.40;47.89
42725;BME280;28369;44.046;23.014;2022-10-15T08:30:34;101521.09;;;18.05;48.11
42725;BME280;28369;44.046;23.014;2022-10-15T08:32:59;101566.31;;;18.05;47.55
42725;BME280;28369;44.046;23.014;2022-10-15T08:35:25;101800.97;;;19.60;47.29
42725;BME280;28369;44.046;23.014;2022-10-15T08:37:53;101786.69;;;19.77;47.26
42725;BME280;28369;44.046;23.014;2022-10-15T08:40:22;101577.84;;;18.67;47.19
42725;BME280;28369;44.046;23.014;2022-10-15T08:43:04;101765.81;;;19.64;47.17
42725;BME280;28369;44.046;23.014;2022-10-15T08:48:57;101743.97;;;19.61;46.29
42725;BME280;28369;44.046;23.014;2022-10-15T08:51:26;101655.84;;;19.20;45.77
42725;BME280;28369;44.046;23.014;2022-10-15T08:54:01;101648.13;;;19.08;45.62
42725;BME280;28369;44.046;23.014;2022-10-15T08:56:36;101659.47;;;19.10;45.56
42725;BME280;28369;44.046;23.014;2022-10-15T09:08:15;101812.91;;;20.58;45.28
42725;BME280;28369;44.046;23.014;2022-10-15T09:10:52;101607.91;;;19.36;44.22
42725;BME280;28369;44.046;23.014;2022-10-15T09:15:51;101586.31;;;19.05;43.17
42725;BME280;28369;44.046;23.014;2022-10-15T09:18:22;101798.06;;;20.71;43.19
42725;BME280;28369;44.046;23.014;2022-10-15T09:20:49;101829.31;;;20.71;42.54
42725;BME280;28369;44.046;23.014;2022-10-15T09:23:21;101747.47;;;20.45;42.61
42725;BME280;28369;44.046;23.014;2022-10-15T09:25:54;101809.25;;;20.83;42.33
42725;BME280;28369;44.046;23.014;2022-10-15T09:31:42;101726.25;;;20.60;43.11
42725;BME280;28369;44.046;23.014;2022-10-15T09:36:53;101559.63;;;19.72;43.12
42725;BME280;28369;44.046;23.014;2022-10-15T09:39:29;101831.06;;;21.36;42.35
42725;BME280;28369;44.046;23.014;2022-10-15T09:42:26;101818.88;;;21.26;40.97
42725;BME280;28369;44.046;23.014;2022-10-15T09:48:23;101815.56;;;21.15;41.80
42725;BME280;28369;44.046;23.014;2022-10-15T09:54:55;101812.72;;;21.09;41.86
42725;BME280;28369;44.046;23.014;2022-10-15T10:01:00;101801.47;;;21.38;41.22
42725;BME280;28369;44.046;23.014;2022-10-15T10:03:29;101765.75;;;21.14;40.04
42725;BME280;28369;44.046;23.014;2022-10-15T10:06:01;101518.75;;;19.30;40.45
42725;BME280;28369;44.046;23.014;2022-10-15T10:12:15;101644.66;;;20.25;41.09
42725;BME280;28369;44.046;23.014;2022-10-15T10:22:26;101732.25;;;20.95;40.48
42725;BME280;28369;44.046;23.014;2022-10-15T10:24:51;101760.06;;;21.26;40.14
42725;BME280;28369;44.046;23.014;2022-10-15T10:27:23;101783.91;;;21.44;40.17
42725;BME280;28369;44.046;23.014;2022-10-15T10:30:11;101799.69;;;21.70;40.69
42725;BME280;28369;44.046;23.014;2022-10-15T10:32:38;101618.59;;;20.68;39.72
42725;BME280;28369;44.046;23.014;2022-10-15T10:35:04;101803.81;;;21.33;40.29
42725;BME280;28369;44.046;23.014;2022-10-15T10:40:49;101560.97;;;19.93;39.83
42725;BME280;28369;44.046;23.014;2022-10-15T10:48:53;101610.56;;;20.60;39.63
42725;BME280;28369;44.046;23.014;2022-10-15T10:51:22;101690.50;;;20.86;39.63
42725;BME280;28369;44.046;23.014;2022-10-15T11:00:01;101621.38;;;20.83;39.20
42725;BME280;28369;44.046;23.014;2022-10-15T11:05:57;101765.28;;;21.67;39.12
42725;BME280;28369;44.046;23.014;2022-10-15T11:11:39;101804.66;;;22.13;38.80
42725;BME280;28369;44.046;23.014;2022-10-15T11:35:48;101753.81;;;21.81;38.38
42725;BME280;28369;44.046;23.014;2022-10-15T11:50:52;101744.94;;;22.35;38.33
42725;BME280;28369;44.046;23.014;2022-10-15T11:53:47;101739.66;;;22.42;37.71
42725;BME280;28369;44.046;23.014;2022-10-15T11:56:48;101697.91;;;22.33;37.05
42725;BME280;28369;44.046;23.014;2022-10-15T11:59:29;101686.84;;;22.13;37.05
42725;BME280;28369;44.046;23.014;2022-10-15T12:02:04;101735.44;;;22.24;37.89
42725;BME280;28369;44.046;23.014;2022-10-15T12:04:38;101466.31;;;20.60;36.83
42725;BME280;28369;44.046;23.014;2022-10-15T12:07:06;101592.22;;;21.28;37.75
42725;BME280;28369;44.046;23.014;2022-10-15T12:19:22;101414.41;;;20.31;37.26
42725;BME280;28369;44.046;23.014;2022-10-15T12:30:55;101704.31;;;22.00;38.76
42725;BME280;28369;44.046;23.014;2022-10-15T12:36:29;101702.41;;;22.09;37.67
42725;BME280;28369;44.046;23.014;2022-10-15T12:39:01;101522.97;;;21.18;37.01
42725;BME280;28369;44.046;23.014;2022-10-15T12:44:50;101646.44;;;21.76;37.54
42725;BME280;28369;44.046;23.014;2022-10-15T12:47:55;101695.63;;;22.21;37.07
42725;BME280;28369;44.046;23.014;2022-10-15T12:50:36;101673.91;;;22.16;36.89
42725;BME280;28369;44.046;23.014;2022-10-15T12:53:29;101682.59;;;22.18;37.29
42725;BME280;28369;44.046;23.014;2022-10-15T12:58:47;101690.34;;;22.13;38.39
42725;BME280;28369;44.046;23.014;2022-10-15T13:09:35;101623.41;;;21.75;38.32
42725;BME280;28369;44.046;23.014;2022-10-15T13:12:00;101592.66;;;21.71;37.39
42725;BME280;28369;44.046;23.014;2022-10-15T13:14:37;101681.50;;;21.89;37.46
42725;BME280;28369;44.046;23.014;2022-10-15T13:27:00;101616.31;;;21.82;37.67
42725;BME280;28369;44.046;23.014;2022-10-15T13:33:12;101667.53;;;22.17;38.10
42725;BME280;28369;44.046;23.014;2022-10-15T13:45:18;101599.03;;;21.85;37.80
42725;BME280;28369;44.046;23.014;2022-10-15T13:47:49;101595.47;;;21.92;37.90
42725;BME280;28369;44.046;23.014;2022-10-15T13:59:25;101635.81;;;21.91;37.97
42725;BME280;28369;44.046;23.014;2022-10-15T14:01:58;101399.31;;;20.46;37.02
42725;BME280;28369;44.046;23.014;2022-10-15T14:04:29;101437.94;;;20.59;37.33
42725;BME280;28369;44.046;23.014;2022-10-15T14:10:20;101639.75;;;21.80;37.32
42725;BME280;28369;44.046;23.014;2022-10-15T14:12:45;101566.38;;;21.51;36.93
42725;BME280;28369;44.046;23.014;2022-10-15T14:18:14;101632.59;;;21.96;37.42
42725;BME280;28369;44.046;23.014;2022-10-15T14:20:44;101344.03;;;20.24;37.37
42725;BME280;28369;44.046;23.014;2022-10-15T14:23:19;101217.66;;;19.45;37.55
42725;BME280;28369;44.046;23.014;2022-10-15T14:25:55;101406.81;;;20.43;37.83
42725;BME280;28369;44.046;23.014;2022-10-15T14:28:22;101482.59;;;20.81;37.46
42725;BME280;28369;44.046;23.014;2022-10-15T14:30:49;101233.16;;;19.42;37.64
42725;BME280;28369;44.046;23.014;2022-10-15T14:37:01;101654.81;;;22.19;37.29
42725;BME280;28369;44.046;23.014;2022-10-15T14:49:23;101657.66;;;21.80;37.54
42725;BME280;28369;44.046;23.014;2022-10-15T14:59:20;101651.13;;;21.82;38.65
42725;BME280;28369;44.046;23.014;2022-10-15T15:01:57;101440.38;;;20.37;38.88
42725;BME280;28369;44.046;23.014;2022-10-15T15:07:55;101645.63;;;21.44;38.34
42725;BME280;28369;44.046;23.014;2022-10-15T15:13:44;101575.09;;;20.91;38.27
42725;BME280;28369;44.046;23.014;2022-10-15T15:16:15;101516.91;;;20.61;38.99
42725;BME280;28369;44.046;23.014;2022-10-15T15:22:46;101676.81;;;21.29;39.58
42725;BME280;28369;44.046;23.014;2022-10-15T15:25:29;101645.53;;;20.98;40.30
42725;BME280;28369;44.046;23.014;2022-10-15T15:28:15;101590.44;;;20.32;41.03
42725;BME280;28369;44.046;23.014;2022-10-15T15:34:08;101620.97;;;20.38;41.74
42725;BME280;28369;44.046;23.014;2022-10-15T15:39:57;101647.38;;;20.16;42.76
42725;BME280;28369;44.046;23.014;2022-10-15T15:45:45;101696.25;;;20.17;44.08
42725;BME280;28369;44.046;23.014;2022-10-15T15:48:11;101514.72;;;18.93;44.52
42725;BME280;28369;44.046;23.014;2022-10-15T15:50:37;101610.88;;;19.33;45.10
42725;BME280;28369;44.046;23.014;2022-10-15T15:53:02;101349.88;;;17.54;45.19
42725;BME280;28369;44.046;23.014;2022-10-15T15:55:28;101695.31;;;19.67;45.59
42725;BME280;28369;44.046;23.014;2022-10-15T15:57:54;101692.97;;;19.64;45.69
42725;BME280;28369;44.046;23.014;2022-10-15T16:00:20;101448.63;;;18.11;46.03
42725;BME280;28369;44.046;23.014;2022-10-15T16:02:45;101399.44;;;17.89;46.15
42725;BME280;28369;44.046;23.014;2022-10-15T16:05:13;101654.19;;;19.27;46.12
42725;BME280;28369;44.046;23.014;2022-10-15T16:07:40;101620.13;;;19.04;45.97
42725;BME280;28369;44.046;23.014;2022-10-15T16:10:06;101621.81;;;19.05;46.88
42725;BME280;28369;44.046;23.014;2022-10-15T16:12:33;101641.44;;;19.04;46.76
42725;BME280;28369;44.046;23.014;2022-10-15T16:18:21;101699.34;;;19.28;47.04
42725;BME280;28369;44.046;23.014;2022-10-15T16:20:46;101721.78;;;19.17;46.84
42725;BME280;28369;44.046;23.014;2022-10-15T16:23:12;101699.47;;;19.19;46.79
42725;BME280;28369;44.046;23.014;2022-10-15T16:25:38;101484.50;;;17.81;46.86
42725;BME280;28369;44.046;23.014;2022-10-15T16:28:03;101527.94;;;18.08;46.85
42725;BME280;28369;44.046;23.014;2022-10-15T16:30:29;101494.59;;;17.77;47.29
42725;BME280;28369;44.046;23.014;2022-10-15T16:32:55;101546.31;;;18.19;47.36
42725;BME280;28369;44.046;23.014;2022-10-15T16:35:20;101480.94;;;17.72;47.23
42725;BME280;28369;44.046;23.014;2022-10-15T16:37:46;101671.81;;;18.85;46.97
42725;BME280;28369;44.046;23.014;2022-10-15T16:40:12;101618.06;;;18.55;46.90
42725;BME280;28369;44.046;23.014;2022-10-15T16:42:37;101526.81;;;17.92;46.64
42725;BME280;28369;44.046;23.014;2022-10-15T16:45:03;101651.75;;;18.73;46.56
42725;BME280;28369;44.046;23.014;2022-10-15T16:47:29;101745.22;;;19.32;46.81
42725;BME280;28369;44.046;23.014;2022-10-15T16:49:54;101730.16;;;19.23;47.01
42725;BME280;28369;44.046;23.014;2022-10-15T16:52:20;101741.47;;;19.25;47.08
42725;BME280;28369;44.046;23.014;2022-10-15T16:54:46;101464.84;;;17.56;46.91
42725;BME280;28369;44.046;23.014;2022-10-15T16:57:11;101537.97;;;17.96;47.08
42725;BME280;28369;44.046;23.014;2022-10-15T16:59:37;101760.66;;;19.28;46.62
42725;BME280;28369;44.046;23.014;2022-10-15T17:02:03;101508.38;;;17.73;46.98
42725;BME280;28369;44.046;23.014;2022-10-15T17:04:29;101607.53;;;18.27;46.68
42725;BME280;28369;44.046;23.014;2022-10-15T17:06:54;101731.41;;;19.10;46.83
42725;BME280;28369;44.046;23.014;2022-10-15T17:09:20;101578.66;;;18.06;47.06
42725;BME280;28369;44.046;23.014;2022-10-15T17:11:45;101721.34;;;18.96;47.49
42725;BME280;28369;44.046;23.014;2022-10-15T17:14:15;101471.44;;;17.43;48.09
42725;BME280;28369;44.046;23.014;2022-10-15T17:16:43;101391.34;;;16.84;48.37
42725;BME280;28369;44.046;23.014;2022-10-15T17:19:10;101477.38;;;17.19;49.67
42725;BME280;28369;44.046;23.014;2022-10-15T17:21:36;101668.75;;;18.27;49.83
42725;BME280;28369;44.046;23.014;2022-10-15T17:24:05;101447.09;;;16.84;50.10
42725;BME280;28369;44.046;23.014;2022-10-15T17:26:35;101488.44;;;17.15;50.00
42725;BME280;28369;44.046;23.014;2022-10-15T17:29:02;101700.47;;;18.39;49.65
42725;BME280;28369;44.046;23.014;2022-10-15T17:31:28;101597.41;;;17.69;49.98
42725;BME280;28369;44.046;23.014;2022-10-15T17:34:01;101767.88;;;18.39;50.73
42725;BME280;28369;44.046;23.014;2022-10-15T17:36:37;101482.63;;;16.55;51.38
42725;BME280;28369;44.046;23.014;2022-10-15T17:39:08;101665.84;;;17.49;52.12
42725;BME280;28369;44.046;23.014;2022-10-15T17:41:43;101770.22;;;18.06;51.81
42725;BME280;28369;44.046;23.014;2022-10-15T17:44:10;101572.34;;;16.89;52.11
42725;BME280;28369;44.046;23.014;2022-10-15T17:46:36;101575.84;;;16.80;51.77
42725;BME280;28369;44.046;23.014;2022-10-15T17:49:01;101430.78;;;15.96;52.47
42725;BME280;28369;44.046;23.014;2022-10-15T17:51:29;101710.47;;;17.73;51.95
42725;BME280;28369;44.046;23.014;2022-10-15T17:53:56;101528.03;;;16.52;51.87
42725;BME280;28369;44.046;23.014;2022-10-15T17:56:24;101565.41;;;16.69;51.98
42725;BME280;28369;44.046;23.014;2022-10-15T18:02:12;101780.63;;;17.90;52.22
42725;BME280;28369;44.046;23.014;2022-10-15T18:07:59;101695.09;;;17.21;52.53
42725;BME280;28369;44.046;23.014;2022-10-15T18:13:47;101743.69;;;17.41;52.38
42725;BME280;28369;44.046;23.014;2022-10-15T18:16:13;101683.28;;;16.96;52.97
42725;BME280;28369;44.046;23.014;2022-10-15T18:18:39;101711.28;;;16.90;53.38
42725;BME280;28369;44.046;23.014;2022-10-15T18:21:09;101719.38;;;16.88;53.17
42725;BME280;28369;44.046;23.014;2022-10-15T18:23:37;101659.94;;;16.52;53.13
42725;BME280;28369;44.046;23.014;2022-10-15T18:26:11;101798.53;;;17.32;52.96
42725;BME280;28369;44.046;23.014;2022-10-15T18:32:22;101793.28;;;17.13;53.54
42725;BME280;28369;44.046;23.014;2022-10-15T18:34:48;101519.72;;;15.41;53.34
42725;BME280;28369;44.046;23.014;2022-10-15T18:37:14;101576.63;;;15.57;53.43
42725;BME280;28369;44.046;23.014;2022-10-15T18:39:39;101756.41;;;16.70;53.73
42725;BME280;28369;44.046;23.014;2022-10-15T18:42:05;101692.91;;;16.39;53.93
42725;BME280;28369;44.046;23.014;2022-10-15T18:48:04;101795.41;;;16.80;54.76
42725;BME280;28369;44.046;23.014;2022-10-15T18:53:51;101798.06;;;16.80;55.44
42725;BME280;28369;44.046;23.014;2022-10-15T18:56:17;101564.88;;;15.30;55.29
42725;BME280;28369;44.046;23.014;2022-10-15T18:58:43;101554.81;;;15.14;55.18
42725;BME280;28369;44.046;23.014;2022-10-15T19:03:38;101701.00;;;16.09;54.78
42725;BME280;28369;44.046;23.014;2022-10-15T19:06:04;101781.31;;;16.69;54.43
42725;BME280;28369;44.046;23.014;2022-10-15T19:08:29;101591.09;;;15.43;54.32
42725;BME280;28369;44.046;23.014;2022-10-15T19:14:04;101749.88;;;16.35;54.48
42725;BME280;28369;44.046;23.014;2022-10-15T19:16:31;101621.53;;;15.58;54.54
42725;BME280;28369;44.046;23.014;2022-10-15T19:18:57;101725.16;;;16.05;54.12
42725;BME280;28369;44.046;23.014;2022-10-15T19:21:24;101618.31;;;15.54;54.24
42725;BME280;28369;44.046;23.014;2022-10-15T19:23:49;101820.41;;;16.87;53.85
42725;BME280;28369;44.046;23.014;2022-10-15T19:26:15;101742.47;;;16.39;53.70
42725;BME280;28369;44.046;23.014;2022-10-15T19:28:41;101688.16;;;16.04;53.59
42725;BME280;28369;44.046;23.014;2022-10-15T19:31:09;101682.19;;;16.02;53.75
42725;BME280;28369;44.046;23.014;2022-10-15T19:33:36;101618.84;;;15.38;53.71
42725;BME280;28369;44.046;23.014;2022-10-15T19:36:02;101552.13;;;14.94;54.18
42725;BME280;28369;44.046;23.014;2022-10-15T19:38:28;101826.16;;;16.63;53.95
42725;BME280;28369;44.046;23.014;2022-10-15T19:40:55;101840.41;;;16.62;54.31
42725;BME280;28369;44.046;23.014;2022-10-15T19:43:21;101766.47;;;15.98;54.70
42725;BME280;28369;44.046;23.014;2022-10-15T19:45:48;101803.34;;;16.11;55.21
42725;BME280;28369;44.046;23.014;2022-10-15T19:48:15;101624.22;;;15.08;55.04
42725;BME280;28369;44.046;23.014;2022-10-15T19:50:43;101864.28;;;16.32;55.58
42725;BME280;28369;44.046;23.014;2022-10-15T19:53:12;101791.31;;;15.97;55.42
42725;BME280;28369;44.046;23.014;2022-10-15T19:55:40;101862.16;;;16.26;55.82
42725;BME280;28369;44.046;23.014;2022-10-15T19:58:06;101746.66;;;15.52;55.89
42725;BME280;28369;44.046;23.014;2022-10-15T20:00:33;101444.06;;;13.45;56.28